Time;durP1;ratioP1;P1;durP2;ratioP2;P2;SDS_P1;SDS_P2;PMS_P1;PMS_P2;Temp;Humidity;BMP_temperature;BMP_pressure;BME280_temperature;BME280_humidity;BME280_pressure;Samples;Min_cycle;Max_cycle;Signal;HPM_P1;HPM_P2
2022/09/20 00:02:16;;;;;;;0.20;0.20;;;;;;;;;;5055838;28;20472;-75
2022/09/20 00:04:41;;;;;;;0.20;0.20;;;;;;;;;;5055811;28;20016;-75
2022/09/20 00:07:07;;;;;;;0.10;0.10;;;;;;;;;;5055528;28;20025;-76
2022/09/20 00:09:32;;;;;;;0.20;0.20;;;;;;;;;;5055229;28;20041;-76
2022/09/20 00:11:58;;;;;;;0.20;0.20;;;;;;;;;;5055298;28;20032;-76
2022/09/20 00:14:24;;;;;;;0.20;0.20;;;;;;;;;;5037051;28;20044;-76
2022/09/20 00:16:49;;;;;;;0.20;0.20;;;;;;;;;;5055198;28;20029;-75
2022/09/20 00:19:19;;;;;;;1.23;1.23;;;;;;;;;;5037335;28;20422;-76
2022/09/20 00:21:45;;;;;;;0.10;0.10;;;;;;;;;;5037296;28;20028;-75
2022/09/20 00:24:10;;;;;;;0.10;0.10;;;;;;;;;;5055026;28;20486;-76
2022/09/20 00:26:36;;;;;;;0.20;0.20;;;;;;;;;;5054784;28;20083;-76
2022/09/20 00:29:04;;;;;;;0.15;0.15;;;;;;;;;;5037545;28;20029;-76
2022/09/20 00:31:29;;;;;;;0.20;0.20;;;;;;;;;;5018241;28;20017;-76
2022/09/20 00:36:40;;;;;;;0.20;0.20;;;;;;;;;;5034664;28;20128;-75
2022/09/20 00:39:05;;;;;;;0.10;0.10;;;;;;;;;;5034921;28;20104;-76
2022/09/20 00:41:31;;;;;;;0.20;0.20;;;;;;;;;;5034841;28;20087;-76
2022/09/20 00:43:57;;;;;;;7.47;2.15;;;;;;;;;;5034817;28;20452;-75
2022/09/20 00:46:42;;;;;;;0.13;0.13;;;;;;;;;;5017152;28;20033;-78
2022/09/20 00:49:19;;;;;;;0.20;0.20;;;;;;;;;;5036923;28;20021;-77
2022/09/20 00:51:47;;;;;;;0.20;0.20;;;;;;;;;;5002268;28;20029;-77
2022/09/20 00:54:15;;;;;;;0.30;0.30;;;;;;;;;;5036503;28;20104;-77
2022/09/20 00:56:42;;;;;;;0.10;0.10;;;;;;;;;;5034604;28;20512;-77
2022/09/20 00:59:11;;;;;;;0.20;0.20;;;;;;;;;;5034699;28;20101;-76
2022/09/20 01:01:36;;;;;;;0.10;0.10;;;;;;;;;;5034507;28;20021;-76
2022/09/20 01:04:02;;;;;;;0.20;0.20;;;;;;;;;;5016690;28;20033;-75
2022/09/20 01:06:28;;;;;;;0.10;0.10;;;;;;;;;;5034382;28;20029;-75
2022/09/20 01:08:55;;;;;;;2.03;1.95;;;;;;;;;;5034137;28;20041;-74
2022/09/20 01:11:20;;;;;;;0.20;0.20;;;;;;;;;;5034889;28;20014;-75
2022/09/20 01:13:46;;;;;;;0.13;0.13;;;;;;;;;;5034301;28;20021;-74
2022/09/20 01:16:14;;;;;;;0.20;0.20;;;;;;;;;;5034364;28;20040;-74
2022/09/20 01:18:40;;;;;;;0.10;0.10;;;;;;;;;;5034203;28;20026;-75
2022/09/20 01:21:07;;;;;;;0.20;0.20;;;;;;;;;;5034222;28;20026;-74
2022/09/20 01:23:41;;;;;;;0.28;0.28;;;;;;;;;;5034334;28;20026;-74
2022/09/20 01:26:25;;;;;;;0.10;0.10;;;;;;;;;;5016388;28;20025;-77
2022/09/20 01:28:57;;;;;;;0.30;0.30;;;;;;;;;;5034267;28;20017;-77
2022/09/20 01:31:27;;;;;;;0.25;0.25;;;;;;;;;;5034298;28;20029;-78
2022/09/20 01:33:57;;;;;;;0.10;0.10;;;;;;;;;;5034240;28;20022;-76
2022/09/20 01:36:28;;;;;;;0.10;0.10;;;;;;;;;;5034067;28;20123;-76
2022/09/20 01:39:12;;;;;;;0.10;0.10;;;;;;;;;;5034345;28;20104;-75
2022/09/20 01:41:43;;;;;;;3.10;2.10;;;;;;;;;;5034105;28;20044;-75
2022/09/20 01:44:09;;;;;;;0.10;0.10;;;;;;;;;;5034369;28;20489;-75
2022/09/20 01:46:35;;;;;;;0.13;0.13;;;;;;;;;;5033865;28;20092;-76
2022/09/20 01:49:24;;;;;;;0.10;0.10;;;;;;;;;;5034389;28;20017;-76
2022/09/20 01:52:08;;;;;;;0.10;0.10;;;;;;;;;;5016058;28;20025;-76
2022/09/20 01:54:52;;;;;;;0.22;0.22;;;;;;;;;;5033897;28;20052;-76
2022/09/20 01:57:36;;;;;;;0.30;0.30;;;;;;;;;;5034087;28;20099;-76
2022/09/20 02:00:13;;;;;;;0.20;0.20;;;;;;;;;;5033936;28;20357;-76
2022/09/20 02:02:38;;;;;;;0.20;0.20;;;;;;;;;;5016310;28;20038;-76
2022/09/20 02:05:11;;;;;;;0.43;0.43;;;;;;;;;;5033844;28;20052;-77
2022/09/20 02:07:37;;;;;;;0.10;0.10;;;;;;;;;;5034222;28;20029;-77
2022/09/20 02:10:09;;;;;;;0.10;0.10;;;;;;;;;;5033647;28;20049;-77
2022/09/20 02:12:35;;;;;;;0.20;0.20;;;;;;;;;;5016066;28;20032;-77
2022/09/20 02:15:13;;;;;;;0.63;0.63;;;;;;;;;;5033486;28;20030;-77
2022/09/20 02:18:00;;;;;;;0.10;0.10;;;;;;;;;;5034144;28;20021;-77
2022/09/20 02:20:25;;;;;;;0.10;0.10;;;;;;;;;;5033603;28;20087;-77
2022/09/20 02:23:02;;;;;;;0.10;0.10;;;;;;;;;;5033685;28;20026;-77
2022/09/20 02:25:27;;;;;;;0.20;0.20;;;;;;;;;;5033708;28;20584;-77
2022/09/20 02:27:58;;;;;;;0.55;0.55;;;;;;;;;;5033470;28;20104;-77
2022/09/20 02:30:37;;;;;;;0.20;0.20;;;;;;;;;;5033470;28;20036;-78
2022/09/20 02:33:26;;;;;;;0.20;0.20;;;;;;;;;;5034091;28;20521;-76
2022/09/20 02:36:10;;;;;;;0.20;0.20;;;;;;;;;;5020868;28;20056;-76
2022/09/20 02:38:42;;;;;;;0.20;0.20;;;;;;;;;;5034053;28;20268;-75
2022/09/20 02:41:13;;;;;;;0.10;0.10;;;;;;;;;;5034256;28;20036;-75
2022/09/20 02:44:03;;;;;;;0.20;0.20;;;;;;;;;;5033516;28;20034;-75
2022/09/20 02:46:32;;;;;;;0.20;0.20;;;;;;;;;;5033563;28;20017;-75
2022/09/20 02:48:58;;;;;;;0.10;0.10;;;;;;;;;;5033536;28;20057;-79
2022/09/20 02:51:41;;;;;;;0.20;0.20;;;;;;;;;;5033342;28;20110;-75
2022/09/20 02:54:25;;;;;;;0.32;0.32;;;;;;;;;;5033360;28;20021;-76
2022/09/20 02:57:11;;;;;;;0.20;0.20;;;;;;;;;;5034240;28;20044;-75
2022/09/20 02:59:46;;;;;;;0.20;0.20;;;;;;;;;;5001804;28;20044;-76
2022/09/20 03:02:44;;;;;;;0.20;0.20;;;;;;;;;;5037418;28;20465;-77
2022/09/20 03:05:18;;;;;;;0.15;0.15;;;;;;;;;;4985708;28;20473;-77
2022/09/20 03:07:53;;;;;;;0.10;0.10;;;;;;;;;;5037423;28;20453;-78
2022/09/20 03:10:31;;;;;;;0.10;0.10;;;;;;;;;;5041687;28;20128;-76
2022/09/20 03:13:11;;;;;;;0.10;0.10;;;;;;;;;;5041774;28;20036;-77
2022/09/20 03:16:00;;;;;;;0.10;0.10;;;;;;;;;;5039640;28;20415;-76
2022/09/20 03:18:32;;;;;;;0.10;0.10;;;;;;;;;;5024465;28;20037;-77
2022/09/20 03:21:00;;;;;;;0.17;0.17;;;;;;;;;;5037612;28;20354;-77
2022/09/20 03:23:44;;;;;;;0.20;0.20;;;;;;;;;;5037017;28;20017;-79
2022/09/20 03:26:20;;;;;;;0.20;0.20;;;;;;;;;;5036549;28;20030;-77
2022/09/20 03:28:54;;;;;;;0.20;0.20;;;;;;;;;;5036368;28;20441;-77
2022/09/20 03:31:23;;;;;;;0.20;0.20;;;;;;;;;;5036248;28;20025;-77
2022/09/20 03:33:54;;;;;;;0.10;0.10;;;;;;;;;;5036963;28;20104;-76
2022/09/20 03:36:38;;;;;;;0.10;0.10;;;;;;;;;;5036901;28;20025;-76
2022/09/20 03:39:03;;;;;;;0.35;0.35;;;;;;;;;;5036518;28;20053;-76
2022/09/20 03:41:39;;;;;;;1.17;1.17;;;;;;;;;;5018427;28;20045;-78
2022/09/20 03:44:14;;;;;;;0.10;0.10;;;;;;;;;;5036108;28;20036;-77
2022/09/20 03:46:43;;;;;;;0.10;0.10;;;;;;;;;;5036811;28;20056;-77
2022/09/20 03:49:28;;;;;;;0.20;0.20;;;;;;;;;;5036082;28;20029;-77
2022/09/20 03:52:00;;;;;;;0.15;0.15;;;;;;;;;;5036300;28;20018;-77
2022/09/20 03:54:26;;;;;;;0.10;0.10;;;;;;;;;;5018414;28;20155;-76
2022/09/20 03:57:00;;;;;;;0.10;0.10;;;;;;;;;;5035653;28;20532;-79
2022/09/20 03:59:44;;;;;;;0.10;0.10;;;;;;;;;;5035876;28;20108;-76
2022/09/20 04:02:19;;;;;;;0.30;0.30;;;;;;;;;;5036233;28;20017;-76
2022/09/20 04:04:49;;;;;;;0.10;0.10;;;;;;;;;;5035851;28;20084;-77
2022/09/20 04:07:33;;;;;;;0.10;0.10;;;;;;;;;;5018032;28;20032;-75
2022/09/20 04:10:17;;;;;;;0.10;0.10;;;;;;;;;;5013703;28;20081;-76
2022/09/20 04:12:59;;;;;;;0.10;0.10;;;;;;;;;;5031607;28;20095;-76
2022/09/20 04:15:29;;;;;;;0.10;0.10;;;;;;;;;;5016067;28;20030;-76
2022/09/20 04:17:58;;;;;;;0.10;0.10;;;;;;;;;;5014968;28;20560;-76
2022/09/20 04:20:27;;;;;;;0.10;0.10;;;;;;;;;;5016624;28;20036;-76
2022/09/20 04:22:53;;;;;;;0.10;0.10;;;;;;;;;;5015970;28;20083;-75
2022/09/20 04:25:22;;;;;;;0.13;0.13;;;;;;;;;;5014422;28;20496;-76
2022/09/20 04:28:09;;;;;;;0.10;0.10;;;;;;;;;;5015275;28;20402;-76
2022/09/20 04:30:42;;;;;;;0.10;0.10;;;;;;;;;;5015340;28;20076;-75
2022/09/20 04:33:18;;;;;;;0.10;0.10;;;;;;;;;;5015997;28;20025;-75
2022/09/20 04:38:28;;;;;;;0.10;0.10;;;;;;;;;;5015453;28;20108;-74
2022/09/20 04:41:15;;;;;;;0.10;0.10;;;;;;;;;;5015247;28;20022;-76
2022/09/20 04:43:57;;;;;;;0.10;0.10;;;;;;;;;;5014129;28;20109;-77
2022/09/20 04:46:42;;;;;;;0.10;0.10;;;;;;;;;;5014063;28;20036;-78
2022/09/20 04:49:16;;;;;;;0.20;0.20;;;;;;;;;;5030479;28;20033;-74
2022/09/20 04:51:54;;;;;;;0.17;0.17;;;;;;;;;;5015164;28;20030;-74
2022/09/20 04:54:28;;;;;;;0.20;0.20;;;;;;;;;;5017146;28;20022;-74
2022/09/20 04:56:57;;;;;;;0.10;0.10;;;;;;;;;;5033406;28;20392;-75
2022/09/20 05:00:01;;;;;;;0.20;0.20;;;;;;;;;;5034985;28;20033;-75
2022/09/20 05:02:32;;;;;;;0.10;0.10;;;;;;;;;;4993557;28;20378;-76
2022/09/20 05:05:23;;;;;;;0.10;0.10;;;;;;;;;;4976528;28;20018;-76
2022/09/20 05:08:03;;;;;;;0.10;0.10;;;;;;;;;;5016080;28;20037;-76
2022/09/20 05:10:32;;;;;;;0.10;0.10;;;;;;;;;;5049125;28;20128;-78
2022/09/20 05:13:20;;;;;;;1.90;1.80;;;;;;;;;;5054408;28;20115;-76
2022/09/20 05:15:53;;;;;;;0.83;0.83;;;;;;;;;;5055032;28;20091;-75
2022/09/20 05:18:37;;;;;;;0.20;0.20;;;;;;;;;;5054695;28;20452;-75
2022/09/20 05:21:09;;;;;;;0.17;0.17;;;;;;;;;;5055124;28;20056;-75
2022/09/20 05:23:37;;;;;;;0.10;0.10;;;;;;;;;;5054283;28;20077;-74
2022/09/20 05:26:08;;;;;;;0.57;0.57;;;;;;;;;;5054384;28;20025;-75
2022/09/20 05:28:53;;;;;;;0.10;0.10;;;;;;;;;;5054529;28;20029;-76
2022/09/20 05:31:25;;;;;;;0.10;0.10;;;;;;;;;;5036505;28;20372;-75
2022/09/20 05:33:55;;;;;;;0.10;0.10;;;;;;;;;;5054067;28;20424;-75
2022/09/20 05:36:26;;;;;;;0.10;0.10;;;;;;;;;;5054305;28;20367;-75
2022/09/20 05:39:08;;;;;;;0.10;0.10;;;;;;;;;;5054010;28;20087;-75
2022/09/20 05:41:36;;;;;;;0.20;0.20;;;;;;;;;;5054531;28;20028;-75
2022/09/20 05:44:05;;;;;;;0.52;0.52;;;;;;;;;;5054482;28;20013;-76
2022/09/20 05:46:33;;;;;;;0.98;0.98;;;;;;;;;;5053492;28;20036;-75
2022/09/20 05:48:58;;;;;;;0.10;0.10;;;;;;;;;;5053784;28;20047;-75
2022/09/20 05:51:27;;;;;;;0.20;0.20;;;;;;;;;;5036305;28;20025;-76
2022/09/20 05:54:11;;;;;;;0.32;0.32;;;;;;;;;;5053875;28;20017;-74
2022/09/20 05:56:42;;;;;;;0.10;0.10;;;;;;;;;;5053823;28;20033;-75
2022/09/20 05:59:16;;;;;;;0.10;0.10;;;;;;;;;;5053681;28;20028;-73
2022/09/20 06:01:41;;;;;;;0.20;0.20;;;;;;;;;;5033141;28;20040;-74
2022/09/20 06:04:13;;;;;;;0.20;0.20;;;;;;;;;;5052329;28;20466;-74
2022/09/20 06:06:38;;;;;;;0.10;0.10;;;;;;;;;;5018973;28;20021;-74
2022/09/20 06:09:20;;;;;;;0.57;0.57;;;;;;;;;;5052675;28;20346;-74
2022/09/20 06:11:53;;;;;;;0.10;0.10;;;;;;;;;;5051706;28;20017;-73
2022/09/20 06:14:22;;;;;;;0.20;0.20;;;;;;;;;;5052825;28;20100;-73
2022/09/20 06:16:52;;;;;;;0.73;0.73;;;;;;;;;;5053382;28;20037;-73
2022/09/20 06:19:36;;;;;;;0.10;0.10;;;;;;;;;;5053743;28;20391;-74
2022/09/20 06:22:15;;;;;;;0.20;0.20;;;;;;;;;;5053384;28;20036;-74
2022/09/20 06:24:43;;;;;;;1.33;1.23;;;;;;;;;;5053447;28;20025;-74
2022/09/20 06:27:13;;;;;;;0.20;0.20;;;;;;;;;;5035585;28;20033;-74
2022/09/20 06:29:40;;;;;;;0.10;0.10;;;;;;;;;;5053591;28;20542;-75
2022/09/20 06:32:07;;;;;;;0.20;0.20;;;;;;;;;;5035599;28;20102;-74
2022/09/20 06:34:32;;;;;;;0.10;0.10;;;;;;;;;;5055025;28;20523;-73
2022/09/20 06:42:59;;;;;;;0.20;0.20;;;;;;;;;;5057610;28;20025;-74
2022/09/20 06:45:25;;;;;;;0.20;0.20;;;;;;;;;;5057445;28;20063;-75
2022/09/20 06:47:51;;;;;;;0.20;0.20;;;;;;;;;;5057193;28;20029;-74
2022/09/20 06:50:17;;;;;;;0.10;0.10;;;;;;;;;;5057634;28;20028;-75
2022/09/20 06:52:43;;;;;;;0.40;0.40;;;;;;;;;;5056966;28;20044;-73
2022/09/20 06:55:14;;;;;;;0.20;0.20;;;;;;;;;;5038782;28;20464;-72
2022/09/20 06:57:40;;;;;;;0.20;0.20;;;;;;;;;;5039054;28;20456;-73
2022/09/20 07:00:09;;;;;;;0.30;0.30;;;;;;;;;;5056844;28;20040;-73
2022/09/20 07:02:35;;;;;;;0.20;0.20;;;;;;;;;;5038526;28;20372;-73
2022/09/20 07:05:00;;;;;;;0.20;0.20;;;;;;;;;;5056424;28;20009;-73
2022/09/20 07:07:25;;;;;;;0.20;0.20;;;;;;;;;;5057146;28;20464;-72
2022/09/20 07:09:51;;;;;;;0.20;0.20;;;;;;;;;;5038433;28;20045;-73
2022/09/20 07:12:17;;;;;;;0.22;0.22;;;;;;;;;;5056926;28;20356;-73
2022/09/20 07:14:43;;;;;;;0.20;0.20;;;;;;;;;;5056071;28;20107;-73
2022/09/20 07:17:08;;;;;;;0.20;0.20;;;;;;;;;;5021215;28;20020;-73
2022/09/20 07:19:35;;;;;;;0.20;0.20;;;;;;;;;;5056673;28;20503;-73
2022/09/20 07:22:01;;;;;;;0.95;0.95;;;;;;;;;;5056466;28;20021;-73
2022/09/20 07:24:27;;;;;;;0.20;0.20;;;;;;;;;;5056673;28;20439;-74
2022/09/20 07:26:54;;;;;;;0.20;0.20;;;;;;;;;;5038504;28;20029;-74
2022/09/20 07:29:19;;;;;;;0.20;0.20;;;;;;;;;;5038473;28;20036;-75
2022/09/20 07:31:44;;;;;;;0.20;0.20;;;;;;;;;;5056828;28;20021;-74
2022/09/20 07:34:10;;;;;;;0.10;0.10;;;;;;;;;;5056373;28;20029;-72
2022/09/20 07:36:35;;;;;;;0.20;0.20;;;;;;;;;;5043153;28;20034;-74
2022/09/20 07:39:01;;;;;;;0.20;0.20;;;;;;;;;;5036263;28;20061;-73
2022/09/20 07:41:31;;;;;;;0.20;0.20;;;;;;;;;;5035677;28;20021;-73
2022/09/20 07:44:19;;;;;;;0.20;0.20;;;;;;;;;;5018141;28;20036;-73
2022/09/20 07:46:46;;;;;;;0.20;0.20;;;;;;;;;;5056371;28;20036;-74
2022/09/20 07:49:12;;;;;;;0.95;0.65;;;;;;;;;;5021721;28;20036;-72
2022/09/20 07:51:37;;;;;;;0.10;0.10;;;;;;;;;;5055937;28;20025;-74
2022/09/20 07:54:03;;;;;;;0.40;0.40;;;;;;;;;;5055585;28;20146;-73
2022/09/20 07:56:28;;;;;;;0.20;0.20;;;;;;;;;;5056032;28;20455;-72
2022/09/20 07:58:54;;;;;;;0.15;0.15;;;;;;;;;;5056255;28;20104;-73
2022/09/20 08:01:21;;;;;;;0.20;0.20;;;;;;;;;;5055641;28;20083;-72
2022/09/20 08:03:47;;;;;;;0.30;0.30;;;;;;;;;;5055731;28;20102;-72
2022/09/20 08:06:17;;;;;;;0.57;0.40;;;;;;;;;;5055781;28;20037;-74
2022/09/20 08:08:42;;;;;;;0.20;0.20;;;;;;;;;;5036889;28;20111;-73
2022/09/20 08:11:09;;;;;;;1.30;1.23;;;;;;;;;;5055972;28;20103;-74
2022/09/20 08:13:36;;;;;;;0.20;0.20;;;;;;;;;;5038370;28;20041;-73
2022/09/20 08:16:03;;;;;;;0.10;0.10;;;;;;;;;;5056301;28;20072;-75
2022/09/20 08:18:29;;;;;;;0.20;0.20;;;;;;;;;;5051357;28;20343;-74
2022/09/20 08:20:54;;;;;;;0.20;0.20;;;;;;;;;;5057420;28;20055;-75
2022/09/20 08:23:20;;;;;;;0.20;0.20;;;;;;;;;;5059120;28;20017;-72
2022/09/20 08:25:47;;;;;;;0.20;0.20;;;;;;;;;;5043560;28;20067;-73
2022/09/20 08:28:12;;;;;;;0.20;0.20;;;;;;;;;;5018564;28;20500;-75
2022/09/20 08:30:38;;;;;;;0.20;0.20;;;;;;;;;;5036112;28;20029;-74
2022/09/20 08:33:05;;;;;;;0.20;0.20;;;;;;;;;;5036290;28;20487;-75
2022/09/20 08:35:34;;;;;;;0.20;0.20;;;;;;;;;;5035302;28;20088;-74
2022/09/20 08:37:59;;;;;;;0.40;0.40;;;;;;;;;;5036252;28;20059;-74
2022/09/20 08:40:26;;;;;;;0.20;0.20;;;;;;;;;;5034341;28;20279;-74
2022/09/20 08:42:53;;;;;;;0.10;0.10;;;;;;;;;;5042038;28;20028;-73
2022/09/20 08:45:25;;;;;;;0.30;0.30;;;;;;;;;;5035063;28;20061;-73
2022/09/20 08:47:54;;;;;;;0.40;0.40;;;;;;;;;;5052548;28;20544;-73
2022/09/20 08:50:19;;;;;;;0.20;0.20;;;;;;;;;;5052366;28;20028;-74
2022/09/20 08:52:47;;;;;;;0.20;0.20;;;;;;;;;;5051262;28;20021;-74
2022/09/20 08:55:17;;;;;;;0.20;0.20;;;;;;;;;;5052341;28;20028;-73
2022/09/20 08:57:43;;;;;;;0.20;0.20;;;;;;;;;;5051521;28;20487;-73
2022/09/20 09:00:16;;;;;;;0.30;0.30;;;;;;;;;;5052289;28;20025;-73
2022/09/20 09:02:41;;;;;;;0.40;0.40;;;;;;;;;;5053126;28;20029;-73
2022/09/20 09:05:21;;;;;;;0.28;0.28;;;;;;;;;;5051626;28;20031;-75
2022/09/20 09:07:47;;;;;;;0.17;0.17;;;;;;;;;;5052086;28;20118;-74
2022/09/20 09:10:12;;;;;;;0.20;0.20;;;;;;;;;;5051837;28;20484;-74
2022/09/20 09:12:38;;;;;;;0.30;0.30;;;;;;;;;;5051917;28;20039;-74
2022/09/20 09:15:22;;;;;;;0.20;0.20;;;;;;;;;;5051725;28;20352;-75
2022/09/20 09:17:48;;;;;;;0.20;0.20;;;;;;;;;;5052291;28;20413;-74
2022/09/20 09:20:20;;;;;;;0.20;0.20;;;;;;;;;;5051554;28;20061;-73
2022/09/20 09:22:46;;;;;;;0.32;0.32;;;;;;;;;;5052279;28;20051;-74
2022/09/20 09:25:17;;;;;;;0.30;0.30;;;;;;;;;;5052287;28;20496;-74
2022/09/20 09:27:54;;;;;;;0.20;0.20;;;;;;;;;;5051929;28;20104;-74
2022/09/20 09:30:27;;;;;;;0.82;0.57;;;;;;;;;;5051502;28;20025;-74
2022/09/20 09:33:13;;;;;;;0.20;0.20;;;;;;;;;;5052032;28;20017;-75
2022/09/20 09:35:38;;;;;;;0.47;0.47;;;;;;;;;;5050915;28;20035;-74
2022/09/20 09:38:04;;;;;;;0.15;0.15;;;;;;;;;;5051994;28;20025;-74
2022/09/20 09:40:30;;;;;;;0.20;0.20;;;;;;;;;;5052092;28;20395;-74
2022/09/20 09:42:57;;;;;;;0.20;0.20;;;;;;;;;;5034201;28;20025;-73
2022/09/20 09:45:25;;;;;;;0.20;0.20;;;;;;;;;;5051447;28;20041;-73
2022/09/20 09:47:51;;;;;;;0.20;0.20;;;;;;;;;;5051698;28;20240;-73
2022/09/20 09:50:24;;;;;;;0.30;0.30;;;;;;;;;;5052711;28;20036;-74
2022/09/20 09:53:09;;;;;;;0.30;0.30;;;;;;;;;;5051681;28;20068;-73
2022/09/20 09:55:53;;;;;;;0.20;0.20;;;;;;;;;;5051303;28;20075;-74
2022/09/20 09:58:39;;;;;;;0.20;0.20;;;;;;;;;;5051517;28;20025;-73
2022/09/20 10:01:06;;;;;;;0.20;0.20;;;;;;;;;;5050900;28;20037;-74
2022/09/20 10:03:55;;;;;;;0.20;0.20;;;;;;;;;;5051670;28;20052;-74
2022/09/20 10:06:23;;;;;;;0.30;0.30;;;;;;;;;;5038646;28;20124;-73
2022/09/20 10:09:05;;;;;;;0.20;0.20;;;;;;;;;;5048397;28;20491;-75
2022/09/20 10:11:57;;;;;;;0.20;0.20;;;;;;;;;;5037697;28;20032;-77
2022/09/20 10:14:41;;;;;;;0.20;0.20;;;;;;;;;;5044775;28;20059;-73
2022/09/20 10:17:25;;;;;;;0.20;0.20;;;;;;;;;;5055273;28;20139;-74
2022/09/20 10:20:06;;;;;;;0.20;0.20;;;;;;;;;;5055302;28;20029;-73
2022/09/20 10:22:39;;;;;;;0.28;0.28;;;;;;;;;;5055471;28;20169;-74
2022/09/20 10:25:10;;;;;;;0.20;0.20;;;;;;;;;;5054638;28;20031;-74
2022/09/20 10:27:35;;;;;;;0.30;0.30;;;;;;;;;;5055321;28;20023;-73
2022/09/20 10:30:03;;;;;;;0.28;0.28;;;;;;;;;;5050997;28;20025;-74
2022/09/20 10:32:48;;;;;;;0.30;0.30;;;;;;;;;;5056353;28;20062;-73
2022/09/20 10:35:32;;;;;;;0.20;0.20;;;;;;;;;;5055975;28;20086;-74
2022/09/20 10:38:04;;;;;;;0.20;0.20;;;;;;;;;;5056291;28;20053;-74
2022/09/20 10:43:34;;;;;;;0.30;0.30;;;;;;;;;;5051308;28;20408;-73
2022/09/20 10:46:29;;;;;;;0.30;0.30;;;;;;;;;;5051445;28;20022;-74
2022/09/20 10:49:02;;;;;;;0.30;0.30;;;;;;;;;;5029218;28;20033;-74
2022/09/20 10:51:31;;;;;;;0.25;0.25;;;;;;;;;;5046255;28;20025;-74
2022/09/20 10:54:18;;;;;;;0.50;0.45;;;;;;;;;;5055407;28;20096;-74
2022/09/20 10:56:49;;;;;;;0.85;0.50;;;;;;;;;;5028863;28;20045;-74
2022/09/20 10:59:34;;;;;;;0.40;0.35;;;;;;;;;;5054943;28;20068;-74
2022/09/20 11:02:19;;;;;;;0.30;0.30;;;;;;;;;;5046579;28;20029;-77
2022/09/20 11:05:07;;;;;;;0.40;0.40;;;;;;;;;;5054512;28;20420;-74
2022/09/20 11:07:44;;;;;;;0.20;0.20;;;;;;;;;;5055000;28;20039;-75
2022/09/20 11:10:19;;;;;;;0.50;0.40;;;;;;;;;;5037117;28;20037;-74
2022/09/20 11:12:56;;;;;;;0.20;0.20;;;;;;;;;;5048229;28;20039;-74
2022/09/20 11:15:21;;;;;;;2.50;0.52;;;;;;;;;;5054735;28;20112;-74
2022/09/20 11:18:08;;;;;;;0.40;0.40;;;;;;;;;;5054324;28;20092;-74
2022/09/20 11:20:39;;;;;;;0.93;0.85;;;;;;;;;;5053880;28;20040;-74
2022/09/20 11:23:08;;;;;;;0.30;0.30;;;;;;;;;;5054328;28;20032;-70
2022/09/20 11:25:53;;;;;;;0.63;0.30;;;;;;;;;;5054847;28;20479;-71
2022/09/20 11:28:22;;;;;;;0.20;0.20;;;;;;;;;;5053563;28;20021;-71
2022/09/20 11:30:54;;;;;;;1.17;0.60;;;;;;;;;;5035806;28;20024;-71
2022/09/20 11:33:36;;;;;;;0.30;0.30;;;;;;;;;;5036597;28;20384;-71
2022/09/20 11:36:03;;;;;;;0.70;0.70;;;;;;;;;;5050066;28;20037;-73
2022/09/20 11:38:42;;;;;;;1.33;0.70;;;;;;;;;;5036604;28;20045;-72
2022/09/20 11:41:11;;;;;;;0.50;0.50;;;;;;;;;;5054289;28;20021;-73
2022/09/20 11:43:41;;;;;;;0.63;0.57;;;;;;;;;;5049768;28;20017;-72
2022/09/20 11:46:10;;;;;;;1.27;0.77;;;;;;;;;;5054471;28;20048;-71
2022/09/20 11:48:40;;;;;;;0.20;0.20;;;;;;;;;;5053546;28;20460;-72
2022/09/20 11:51:08;;;;;;;0.25;0.25;;;;;;;;;;5053857;28;20526;-71
2022/09/20 11:53:34;;;;;;;0.30;0.30;;;;;;;;;;5053355;28;20060;-72
2022/09/20 11:56:17;;;;;;;0.22;0.22;;;;;;;;;;5054066;28;20114;-71
2022/09/20 11:58:53;;;;;;;0.80;0.40;;;;;;;;;;5036412;28;20060;-71
2022/09/20 12:01:26;;;;;;;0.35;0.35;;;;;;;;;;5051714;28;20023;-71
2022/09/20 12:03:54;;;;;;;0.32;0.30;;;;;;;;;;5035763;28;20068;-72
2022/09/20 12:06:25;;;;;;;0.40;0.38;;;;;;;;;;5050222;28;20013;-72
2022/09/20 12:08:50;;;;;;;0.20;0.20;;;;;;;;;;5054150;28;20076;-72
2022/09/20 12:11:16;;;;;;;2.65;0.68;;;;;;;;;;5034766;28;20053;-72
2022/09/20 12:13:51;;;;;;;0.28;0.28;;;;;;;;;;5052494;28;20460;-71
2022/09/20 12:16:34;;;;;;;0.30;0.30;;;;;;;;;;5053030;28;20032;-72
2022/09/20 12:19:02;;;;;;;1.08;0.40;;;;;;;;;;5053397;28;20405;-73
2022/09/20 12:21:28;;;;;;;0.65;0.63;;;;;;;;;;5045210;28;20116;-72
2022/09/20 12:23:56;;;;;;;0.20;0.20;;;;;;;;;;5037041;28;20520;-71
2022/09/20 12:26:21;;;;;;;0.30;0.30;;;;;;;;;;5054432;28;20104;-72
2022/09/20 12:28:50;;;;;;;2.83;0.50;;;;;;;;;;5055315;28;20673;-72
2022/09/20 12:31:15;;;;;;;0.30;0.30;;;;;;;;;;5053203;28;20120;-72
2022/09/20 12:33:59;;;;;;;0.30;0.30;;;;;;;;;;5055056;28;20342;-71
2022/09/20 12:36:29;;;;;;;0.50;0.47;;;;;;;;;;5054231;28;20809;-71
2022/09/20 12:39:01;;;;;;;2.55;0.73;;;;;;;;;;5055009;28;20020;-71
2022/09/20 12:41:27;;;;;;;1.17;0.80;;;;;;;;;;5054753;28;20479;-71
2022/09/20 12:43:52;;;;;;;1.48;0.60;;;;;;;;;;5054947;28;20040;-72
2022/09/20 12:46:38;;;;;;;0.20;0.20;;;;;;;;;;5055281;28;20360;-73
2022/09/20 12:55:25;;;;;;;0.40;0.35;;;;;;;;;;5052899;28;20472;-71
2022/09/20 12:57:57;;;;;;;8.65;0.57;;;;;;;;;;5048661;28;20144;-71
2022/09/20 13:00:35;;;;;;;0.20;0.20;;;;;;;;;;5040432;28;20029;-72
2022/09/20 13:03:09;;;;;;;0.30;0.30;;;;;;;;;;5052834;28;20074;-75
2022/09/20 13:05:39;;;;;;;1.17;0.68;;;;;;;;;;5052578;28;20029;-73
2022/09/20 13:08:12;;;;;;;1.35;0.43;;;;;;;;;;5051391;28;20025;-72
2022/09/20 13:10:43;;;;;;;1.38;1.27;;;;;;;;;;5056865;28;20049;-71
2022/09/20 13:13:35;;;;;;;0.30;0.30;;;;;;;;;;5054292;28;20024;-72
2022/09/20 13:16:04;;;;;;;0.47;0.38;;;;;;;;;;5046994;28;20052;-71
2022/09/20 13:18:30;;;;;;;0.40;0.30;;;;;;;;;;5040146;28;20021;-73
2022/09/20 13:20:56;;;;;;;0.28;0.28;;;;;;;;;;5034118;28;20029;-72
2022/09/20 13:23:26;;;;;;;0.30;0.30;;;;;;;;;;5014678;28;20373;-73
2022/09/20 13:25:54;;;;;;;3.45;0.50;;;;;;;;;;5014438;28;20033;-73
2022/09/20 13:28:25;;;;;;;0.30;0.30;;;;;;;;;;5033034;28;20111;-74
2022/09/20 13:31:11;;;;;;;0.20;0.20;;;;;;;;;;5032181;28;20034;-72
2022/09/20 13:33:36;;;;;;;0.88;0.68;;;;;;;;;;5032345;28;20026;-73
2022/09/20 13:36:03;;;;;;;0.30;0.30;;;;;;;;;;5031474;28;20060;-72
2022/09/20 13:38:30;;;;;;;0.30;0.30;;;;;;;;;;5032065;28;20396;-72
2022/09/20 13:41:05;;;;;;;0.30;0.30;;;;;;;;;;5032034;28;20021;-71
2022/09/20 13:43:41;;;;;;;0.30;0.30;;;;;;;;;;5014472;28;20053;-71
2022/09/20 13:46:08;;;;;;;0.38;0.30;;;;;;;;;;5032283;28;20021;-72
2022/09/20 13:48:34;;;;;;;0.67;0.40;;;;;;;;;;5031437;28;20028;-73
2022/09/20 13:51:01;;;;;;;1.58;1.08;;;;;;;;;;5032892;28;20025;-72
2022/09/20 13:53:29;;;;;;;0.52;0.30;;;;;;;;;;5032458;28;20024;-72
2022/09/20 13:55:55;;;;;;;0.20;0.20;;;;;;;;;;5032183;28;20480;-72
2022/09/20 13:58:33;;;;;;;3.08;0.85;;;;;;;;;;5031448;28;20339;-72
2022/09/20 14:01:00;;;;;;;1.05;0.95;;;;;;;;;;5047954;28;20025;-72
2022/09/20 14:03:27;;;;;;;0.30;0.30;;;;;;;;;;5051961;28;20021;-72
2022/09/20 14:06:00;;;;;;;0.63;0.30;;;;;;;;;;5028871;28;20029;-72
2022/09/20 14:08:45;;;;;;;0.20;0.20;;;;;;;;;;5047468;28;20021;-72
2022/09/20 14:11:15;;;;;;;0.30;0.30;;;;;;;;;;5045536;28;20033;-73
2022/09/20 14:13:42;;;;;;;0.20;0.20;;;;;;;;;;5050843;28;20087;-72
2022/09/20 14:16:09;;;;;;;0.40;0.40;;;;;;;;;;5051017;28;20029;-72
2022/09/20 14:18:36;;;;;;;0.95;0.28;;;;;;;;;;5053831;28;20337;-72
2022/09/20 14:21:03;;;;;;;0.55;0.50;;;;;;;;;;5047724;28;20029;-73
2022/09/20 14:23:29;;;;;;;0.35;0.30;;;;;;;;;;5047422;28;20031;-74
2022/09/20 14:26:28;;;;;;;0.50;0.50;;;;;;;;;;5051507;28;20021;-71
2022/09/20 14:28:53;;;;;;;0.20;0.20;;;;;;;;;;4995826;28;20052;-73
2022/09/20 14:31:18;;;;;;;0.20;0.20;;;;;;;;;;5051975;28;20031;-72
2022/09/20 14:33:46;;;;;;;0.20;0.20;;;;;;;;;;5049852;28;20014;-71
2022/09/20 14:36:14;;;;;;;0.22;0.22;;;;;;;;;;5051296;28;20518;-72
2022/09/20 14:38:41;;;;;;;1.00;0.50;;;;;;;;;;5043360;28;20067;-72
2022/09/20 14:41:07;;;;;;;0.20;0.20;;;;;;;;;;5050344;28;20025;-72
2022/09/20 14:43:34;;;;;;;0.68;0.50;;;;;;;;;;5050985;28;20013;-71
2022/09/20 14:46:04;;;;;;;0.52;0.32;;;;;;;;;;5033680;28;20036;-71
2022/09/20 14:48:40;;;;;;;0.20;0.20;;;;;;;;;;5037932;28;20459;-73
2022/09/20 14:51:16;;;;;;;0.20;0.20;;;;;;;;;;5054562;28;20028;-73
2022/09/20 14:53:43;;;;;;;0.25;0.25;;;;;;;;;;5054871;28;20032;-72
2022/09/20 14:56:10;;;;;;;0.28;0.28;;;;;;;;;;5072264;28;20036;-72
2022/09/20 14:58:54;;;;;;;0.50;0.50;;;;;;;;;;5038076;28;20025;-72
2022/09/20 15:01:23;;;;;;;1.85;0.70;;;;;;;;;;5053774;28;20035;-72
2022/09/20 15:03:50;;;;;;;0.40;0.40;;;;;;;;;;5036775;28;20024;-72
2022/09/20 15:06:15;;;;;;;3.05;1.65;;;;;;;;;;5054750;28;20032;-71
2022/09/20 15:08:42;;;;;;;1.65;0.35;;;;;;;;;;5054850;28;20031;-72
2022/09/20 15:11:13;;;;;;;0.30;0.30;;;;;;;;;;5053515;28;20037;-72
2022/09/20 15:13:39;;;;;;;1.20;0.50;;;;;;;;;;5054936;28;20040;-72
2022/09/20 15:16:05;;;;;;;0.20;0.20;;;;;;;;;;5047244;28;20029;-72
2022/09/20 15:18:35;;;;;;;0.52;0.35;;;;;;;;;;5053613;28;20032;-73
2022/09/20 15:21:01;;;;;;;0.30;0.30;;;;;;;;;;5054381;28;20409;-73
2022/09/20 15:23:27;;;;;;;0.47;0.47;;;;;;;;;;5055476;28;20060;-72
2022/09/20 15:25:53;;;;;;;0.30;0.30;;;;;;;;;;5053732;28;20357;-71
2022/09/20 15:28:19;;;;;;;0.22;0.22;;;;;;;;;;5053864;28;20054;-71
2022/09/20 15:30:49;;;;;;;0.40;0.40;;;;;;;;;;5053753;28;20035;-72
2022/09/20 15:33:15;;;;;;;0.30;0.30;;;;;;;;;;5053507;28;20020;-71